SANTO DOMINGO 25 DE MAYO DEL 2017

 

FTDR31 MDSD 251600Z
TAF 

TAF MDPP 251600Z 2518/2618 251600Z 2518/2618 12010KT 9999 FEW022 BECOMG 2517/2521 09010KT=

TAF MDST 251600Z 2518/2618 14015KT 9999 FEW024=

TAF MDPC 251600Z 2518/2618 11010KT 9999 FEW024 BECMG 2600/2602 00000KT=

TAF MDBH 251600Z 2518/2618 13014KT 9999 FEW020CB FEW022 SCT300=

TAF MDJB 251600Z 2518/2618 18010KT 9999 SCT020 BKN300 BECMG 2600/2602 00000KT=

TAF MDSD 251600Z 2518/2618 15010KT 9999 SCT020 SCT300 BECMG 2607/2609 00000KT=

TAF MDLR 251600Z 2518/2618 14010KT 9999 SCT020 SCT300 BECMG 2600/2602 00000KT=

TAF MDCY 251600Z 2518/2618 13010KT 9999 FEW020 BECMG 2608/2610 00000KT=

 

MDPP AEROPUERTO INTERNACIONAL LA UNION PUERTO PLATA

MDST AEROPUERTO INTERNACIONAL DE SANTIAGO

MDPC AEROPUERTO INTERNACIONAL PUNTA CANA

MDBH AEROPUERTO INTERNACIONAL DE BARAHONA

MDJB AEROPUERTO INTERNACIONAL JOAQUIN BALAGUER

MDSD AEROPUERTO INTERNACIONAL DE LAS AMERICAS

MDLR AEROPUERTO INTERNACIONAL LA ROMANA

MDCY AEROPUERTO INTERNACIONAL DE CATEY

 

 

DANIEL PEÑA RUBIO

MDPP // A. CEBALLO

MDST // E. BURGOS

MDPC // L. MARTE

MDBH // R. MENDEZ

MDJB // A. TAVAREZ

MDCY // E. BAUTISTA